createdAt,value
2022-09-20T00:02:32.287Z,100082.60
2022-09-20T00:05:05.572Z,100080.40
2022-09-20T00:07:38.531Z,100084.00
2022-09-20T00:10:13.030Z,100078.00
2022-09-20T00:12:45.607Z,100075.20
2022-09-20T00:15:18.704Z,100078.80
2022-09-20T00:17:51.887Z,100086.80
2022-09-20T00:20:24.828Z,100080.60
2022-09-20T00:22:57.614Z,100077.40
2022-09-20T00:25:30.825Z,100085.60
2022-09-20T00:28:03.904Z,100085.40
2022-09-20T00:30:37.332Z,100087.40
2022-09-20T00:33:10.219Z,100083.00
2022-09-20T00:35:45.870Z,100087.80
2022-09-20T00:38:19.122Z,100088.40
2022-09-20T00:40:51.947Z,100083.00
2022-09-20T00:43:42.724Z,100085.60
2022-09-20T00:46:27.133Z,100088.20
2022-09-20T00:49:05.565Z,100084.40
2022-09-20T00:51:42.922Z,100088.00
2022-09-20T00:54:20.678Z,100086.60
2022-09-20T00:56:54.832Z,100081.60
2022-09-20T00:59:32.046Z,100085.20
2022-09-20T01:02:13.305Z,100085.40
2022-09-20T01:04:48.225Z,100086.00
2022-09-20T01:07:23.696Z,100079.80
2022-09-20T01:09:56.892Z,100082.80
2022-09-20T01:12:34.864Z,100082.40
2022-09-20T01:15:12.004Z,100083.60
2022-09-20T01:17:48.388Z,100085.20
2022-09-20T01:20:27.071Z,100087.00
2022-09-20T01:23:32.789Z,100078.80
2022-09-20T01:26:46.017Z,100083.40
2022-09-20T01:29:35.590Z,100080.20
2022-09-20T01:32:18.731Z,100079.40
2022-09-20T01:35:01.433Z,100078.80
2022-09-20T01:37:44.967Z,100080.60
2022-09-20T01:40:29.011Z,100082.60
2022-09-20T01:43:10.597Z,100082.80
2022-09-20T01:45:49.923Z,100085.60
2022-09-20T01:48:38.897Z,100082.40
2022-09-20T01:51:47.453Z,100090.40
2022-09-20T01:55:02.185Z,100084.20
2022-09-20T01:58:30.779Z,100092.20
2022-09-20T02:01:47.693Z,100089.40
2022-09-20T02:04:45.159Z,100087.20
2022-09-20T02:07:49.288Z,100089.20
2022-09-20T02:11:14.789Z,100088.20
2022-09-20T02:14:30.235Z,100095.80
2022-09-20T02:17:12.282Z,100093.00
2022-09-20T02:20:24.541Z,100095.40
2022-09-20T02:23:17.839Z,100097.20
2022-09-20T02:26:12.319Z,100093.00
2022-09-20T02:28:57.381Z,100091.20
2022-09-20T02:31:48.372Z,100094.40
2022-09-20T02:34:43.212Z,100097.60
2022-09-20T02:37:40.262Z,100097.20
2022-09-20T02:40:33.762Z,100098.40
2022-09-20T02:43:15.999Z,100102.20
2022-09-20T02:45:56.289Z,100104.80
2022-09-20T02:48:41.477Z,100104.40
2022-09-20T02:51:23.254Z,100114.60
2022-09-20T02:54:08.018Z,100115.40
2022-09-20T02:56:49.016Z,100119.40
2022-09-20T02:59:31.743Z,100117.80
2022-09-20T03:02:22.855Z,100122.20
2022-09-20T03:05:10.902Z,100122.00
2022-09-20T03:08:03.169Z,100123.20
2022-09-20T03:10:46.664Z,100121.60
2022-09-20T03:13:31.499Z,100116.80
2022-09-20T03:16:14.059Z,100115.60
2022-09-20T03:18:56.191Z,100119.00
2022-09-20T03:21:47.853Z,100115.80
2022-09-20T03:24:36.385Z,100119.20
2022-09-20T03:27:17.057Z,100117.60
2022-09-20T03:30:05.236Z,100127.40
2022-09-20T03:32:57.541Z,100128.00
2022-09-20T03:35:47.653Z,100133.20
2022-09-20T03:38:41.402Z,100129.80
2022-09-20T03:41:40.863Z,100130.60
2022-09-20T03:44:31.925Z,100129.20
2022-09-20T03:47:19.446Z,100131.00
2022-09-20T03:50:42.597Z,100130.80
2022-09-20T03:54:05.977Z,100124.00
2022-09-20T03:57:15.013Z,100133.40
2022-09-20T04:00:09.608Z,100129.20
2022-09-20T04:03:04.431Z,100135.80
2022-09-20T04:05:52.957Z,100136.60
2022-09-20T04:08:44.884Z,100137.20
2022-09-20T04:11:27.504Z,100135.20
2022-09-20T04:14:11.598Z,100139.20
2022-09-20T04:16:53.796Z,100137.20
2022-09-20T04:19:36.887Z,100133.40
2022-09-20T04:22:12.107Z,100135.80
2022-09-20T04:24:55.092Z,100136.60
2022-09-20T04:27:35.008Z,100135.60
2022-09-20T04:30:20.542Z,100139.40
2022-09-20T04:33:01.663Z,100143.80
2022-09-20T04:36:12.318Z,100144.40
2022-09-20T04:38:44.825Z,100147.60
2022-09-20T04:41:51.060Z,100146.00
2022-09-20T04:44:58.869Z,100148.80
2022-09-20T04:48:17.218Z,100146.60
2022-09-20T04:51:17.685Z,100147.00
2022-09-20T04:54:31.689Z,100157.20
2022-09-20T04:57:55.161Z,100155.40
2022-09-20T05:00:34.802Z,100159.80
2022-09-20T05:03:40.661Z,100161.60
2022-09-20T05:06:50.822Z,100163.00
2022-09-20T05:10:03.381Z,100164.80
2022-09-20T05:13:05.607Z,100168.60
2022-09-20T05:15:52.091Z,100174.60
2022-09-20T05:19:17.422Z,100176.80
2022-09-20T05:22:25.557Z,100185.00
2022-09-20T05:25:22.891Z,100190.80
2022-09-20T05:28:04.267Z,100194.00
2022-09-20T05:30:42.243Z,100199.20
2022-09-20T05:33:24.826Z,100199.80
2022-09-20T05:36:11.071Z,100207.40
2022-09-20T05:38:58.067Z,100208.60
2022-09-20T05:41:42.390Z,100204.60
2022-09-20T05:44:32.121Z,100204.20
2022-09-20T05:47:18.336Z,100201.20
2022-09-20T05:50:11.197Z,100207.80
2022-09-20T05:52:58.720Z,100207.60
2022-09-20T05:56:03.552Z,100214.00
2022-09-20T05:58:58.859Z,100212.40
2022-09-20T06:01:41.168Z,100217.00
2022-09-20T06:04:21.215Z,100215.80
2022-09-20T06:07:04.374Z,100221.20
2022-09-20T06:10:01.739Z,100218.20
2022-09-20T06:12:53.831Z,100224.20
2022-09-20T06:15:34.629Z,100221.00
2022-09-20T06:18:23.924Z,100225.60
2022-09-20T06:21:15.209Z,100216.60
2022-09-20T06:23:48.611Z,100217.20
2022-09-20T06:26:25.350Z,100222.00
2022-09-20T06:29:01.939Z,100217.20
2022-09-20T06:31:34.828Z,100226.00
2022-09-20T06:34:14.771Z,100220.40
2022-09-20T06:37:09.977Z,100223.40
2022-09-20T06:40:08.753Z,100230.80
2022-09-20T06:42:44.828Z,100229.20
2022-09-20T06:45:17.819Z,100232.20
2022-09-20T06:47:50.499Z,100233.20
2022-09-20T06:50:23.791Z,100234.20
2022-09-20T06:52:56.879Z,100234.80
2022-09-20T06:55:37.561Z,100234.20
2022-09-20T06:58:10.741Z,100235.40
2022-09-20T07:00:43.657Z,100235.40
2022-09-20T07:03:16.407Z,100241.80
2022-09-20T07:05:49.595Z,100246.40
2022-09-20T07:08:22.202Z,100245.80
2022-09-20T07:10:55.057Z,100252.60
2022-09-20T07:13:27.792Z,100253.80
2022-09-20T07:16:07.546Z,100257.40
2022-09-20T07:18:41.404Z,100257.80
2022-09-20T07:21:16.934Z,100262.40
2022-09-20T07:23:50.269Z,100260.80
2022-09-20T07:26:26.689Z,100261.20
2022-09-20T07:29:00.409Z,100263.00
2022-09-20T07:31:33.942Z,100265.00
2022-09-20T07:34:06.745Z,100269.20
2022-09-20T07:36:39.613Z,100270.80
2022-09-20T07:39:12.675Z,100271.60
2022-09-20T07:41:48.721Z,100276.80
2022-09-20T07:44:25.665Z,100279.00
2022-09-20T07:47:00.768Z,100283.20
2022-09-20T07:49:33.625Z,100283.60
2022-09-20T07:52:07.870Z,100284.00
2022-09-20T07:54:40.722Z,100282.40
2022-09-20T07:57:13.612Z,100283.40
2022-09-20T07:59:46.495Z,100291.20
2022-09-20T08:02:20.374Z,100290.00
2022-09-20T08:04:53.249Z,100290.20
2022-09-20T08:07:28.439Z,100282.60
2022-09-20T08:10:01.269Z,100288.20
2022-09-20T08:15:27.557Z,100291.20
2022-09-20T08:18:00.342Z,100291.60
2022-09-20T08:20:33.615Z,100291.20
2022-09-20T08:23:22.938Z,100291.20
2022-09-20T08:25:57.751Z,100295.40
2022-09-20T08:28:30.641Z,100299.60
2022-09-20T08:31:09.154Z,100291.40
2022-09-20T08:33:42.230Z,100287.40
2022-09-20T08:36:17.611Z,100292.20
2022-09-20T08:41:49.147Z,100300.40
2022-09-20T08:44:26.617Z,100298.00
2022-09-20T08:47:10.040Z,100302.00
2022-09-20T08:49:46.027Z,100302.40
2022-09-20T08:52:24.640Z,100299.80
2022-09-20T08:54:58.757Z,100302.60
2022-09-20T08:57:35.763Z,100303.20
2022-09-20T09:00:17.928Z,100303.20
2022-09-20T09:02:55.338Z,100307.80
2022-09-20T09:05:37.602Z,100307.40
2022-09-20T09:08:16.574Z,100312.80
2022-09-20T09:10:55.053Z,100314.40
2022-09-20T09:13:34.065Z,100315.40
2022-09-20T09:16:15.498Z,100309.60
2022-09-20T09:18:51.690Z,100309.60
2022-09-20T09:21:27.867Z,100311.20
2022-09-20T09:24:09.629Z,100313.80
2022-09-20T09:26:44.561Z,100319.80
2022-09-20T09:29:23.543Z,100322.60
2022-09-20T09:31:56.981Z,100322.60
2022-09-20T09:34:33.635Z,100318.00
2022-09-20T09:37:06.414Z,100318.00
2022-09-20T09:39:40.942Z,100327.00
2022-09-20T09:42:29.091Z,100321.80
2022-09-20T09:45:27.180Z,100316.80
2022-09-20T09:48:01.985Z,100322.60
2022-09-20T09:50:36.645Z,100329.20
2022-09-20T09:53:16.695Z,100334.40
2022-09-20T09:56:14.550Z,100333.00
2022-09-20T09:59:10.878Z,100323.80
2022-09-20T10:01:50.909Z,100326.60
2022-09-20T10:04:31.386Z,100321.00
2022-09-20T10:07:07.751Z,100329.00
2022-09-20T10:10:05.110Z,100318.40
2022-09-20T10:12:55.063Z,100322.80
2022-09-20T10:15:42.769Z,100324.80
2022-09-20T10:18:39.783Z,100327.20
2022-09-20T10:21:26.437Z,100336.00
2022-09-20T10:24:13.507Z,100337.60
2022-09-20T10:27:08.898Z,100336.20
2022-09-20T10:29:58.225Z,100335.40
2022-09-20T10:32:47.608Z,100335.40
2022-09-20T10:35:31.964Z,100336.00
2022-09-20T10:38:19.968Z,100339.20
2022-09-20T10:41:34.721Z,100344.80
2022-09-20T10:44:40.200Z,100344.80
2022-09-20T10:47:20.537Z,100340.60
2022-09-20T10:50:03.234Z,100341.80
2022-09-20T10:52:59.797Z,100341.80
2022-09-20T10:55:40.473Z,100336.00
2022-09-20T10:59:19.385Z,100332.40
2022-09-20T11:02:08.651Z,100342.00
2022-09-20T11:05:30.479Z,100334.20
2022-09-20T11:08:13.145Z,100344.60
2022-09-20T11:10:51.929Z,100346.60
2022-09-20T11:13:34.222Z,100348.40
2022-09-20T11:16:11.641Z,100351.80
2022-09-20T11:18:52.042Z,100354.60
2022-09-20T11:21:29.427Z,100351.80
2022-09-20T11:24:11.687Z,100350.60
2022-09-20T11:26:49.264Z,100348.20
2022-09-20T11:29:29.170Z,100354.40
2022-09-20T11:32:13.393Z,100350.80
2022-09-20T11:34:55.981Z,100347.40
2022-09-20T11:37:37.873Z,100347.20
2022-09-20T11:40:23.590Z,100349.80
2022-09-20T11:43:01.666Z,100352.60
2022-09-20T11:45:36.524Z,100353.40
2022-09-20T11:48:18.307Z,100353.00
2022-09-20T11:51:18.423Z,100362.00
2022-09-20T11:54:12.597Z,100370.80
2022-09-20T11:56:53.990Z,100372.00
2022-09-20T11:59:36.287Z,100378.80
2022-09-20T12:02:23.733Z,100378.60
2022-09-20T12:04:57.001Z,100380.60
2022-09-20T12:07:37.256Z,100379.40
2022-09-20T12:10:22.947Z,100376.40
2022-09-20T12:13:01.463Z,100375.20
2022-09-20T12:15:37.131Z,100374.00
2022-09-20T12:18:47.691Z,100375.00
2022-09-20T12:21:23.104Z,100375.00
2022-09-20T12:24:23.800Z,100368.20
2022-09-20T12:27:02.312Z,100374.60
2022-09-20T12:30:20.374Z,100369.00
2022-09-20T12:33:02.448Z,100365.60
2022-09-20T12:36:17.389Z,100369.00
2022-09-20T12:39:00.626Z,100385.00
2022-09-20T12:41:48.873Z,100391.40
2022-09-20T12:44:36.697Z,100395.20
2022-09-20T12:47:20.359Z,100399.20
2022-09-20T12:50:15.552Z,100401.00
2022-09-20T12:52:58.890Z,100401.40
2022-09-20T12:55:50.401Z,100396.20
2022-09-20T12:58:34.052Z,100401.60
2022-09-20T13:01:40.683Z,100391.60
2022-09-20T13:04:57.053Z,100388.00
2022-09-20T13:07:59.795Z,100382.40
2022-09-20T13:10:45.890Z,100375.80
2022-09-20T13:13:29.144Z,100375.00
2022-09-20T13:16:05.838Z,100373.80
2022-09-20T13:18:41.359Z,100369.40
2022-09-20T13:21:14.636Z,100369.40
2022-09-20T13:23:56.600Z,100367.40
2022-09-20T13:26:35.145Z,100369.40
2022-09-20T13:29:12.457Z,100375.40
2022-09-20T13:31:45.163Z,100375.80
2022-09-20T13:34:22.706Z,100372.80
2022-09-20T13:36:59.693Z,100369.00
2022-09-20T13:39:38.993Z,100373.60
2022-09-20T13:42:16.529Z,100374.40
2022-09-20T13:44:50.255Z,100375.60
2022-09-20T13:47:34.167Z,100382.00
2022-09-20T13:50:23.132Z,100383.00
2022-09-20T13:53:00.167Z,100384.80
2022-09-20T13:55:38.857Z,100390.80
2022-09-20T13:58:23.029Z,100392.40
2022-09-20T14:00:59.333Z,100388.60
2022-09-20T14:03:34.444Z,100385.00
2022-09-20T14:06:13.936Z,100385.60
2022-09-20T14:08:50.163Z,100389.40
2022-09-20T14:11:28.305Z,100389.60
2022-09-20T14:14:04.668Z,100382.80
2022-09-20T14:16:41.514Z,100394.00
2022-09-20T14:19:18.503Z,100389.00
2022-09-20T14:21:52.647Z,100393.00
2022-09-20T14:24:35.883Z,100391.20
2022-09-20T14:27:21.149Z,100391.60
2022-09-20T14:29:56.460Z,100394.20
2022-09-20T14:32:51.896Z,100395.00
2022-09-20T14:35:27.033Z,100393.20
2022-09-20T14:38:03.835Z,100396.60
2022-09-20T14:40:46.537Z,100393.80
2022-09-20T14:43:31.632Z,100396.60
2022-09-20T14:46:07.028Z,100396.20
2022-09-20T14:48:42.117Z,100400.20
2022-09-20T14:51:31.134Z,100400.00
2022-09-20T14:54:28.200Z,100398.20
2022-09-20T14:57:02.601Z,100401.60
2022-09-20T14:59:43.681Z,100401.60
2022-09-20T15:02:18.507Z,100407.00
2022-09-20T15:05:00.429Z,100409.20
2022-09-20T15:07:33.395Z,100405.60
2022-09-20T15:10:08.021Z,100408.80
2022-09-20T15:12:40.698Z,100409.00
2022-09-20T15:15:19.041Z,100411.80
2022-09-20T15:17:51.791Z,100407.60
2022-09-20T15:20:25.400Z,100411.00
2022-09-20T15:22:58.277Z,100411.80
2022-09-20T15:25:31.392Z,100410.40
2022-09-20T15:28:04.769Z,100407.80
2022-09-20T15:30:37.647Z,100413.40
2022-09-20T15:33:12.271Z,100414.40
2022-09-20T15:35:46.397Z,100411.60
2022-09-20T15:38:22.963Z,100415.60
2022-09-20T15:40:56.149Z,100414.20
2022-09-20T15:43:30.643Z,100416.40
2022-09-20T15:46:20.816Z,100421.80
2022-09-20T15:48:53.908Z,100420.80
2022-09-20T15:51:27.255Z,100421.40
2022-09-20T15:54:03.111Z,100422.80
2022-09-20T15:56:38.275Z,100423.60
2022-09-20T15:59:13.659Z,100423.20
2022-09-20T16:01:48.411Z,100425.80
2022-09-20T16:04:22.639Z,100424.40
2022-09-20T16:06:55.512Z,100426.80
2022-09-20T16:09:29.010Z,100429.00
2022-09-20T16:12:01.909Z,100428.20
2022-09-20T16:14:35.007Z,100431.40
2022-09-20T16:17:08.892Z,100432.00
2022-09-20T16:19:42.695Z,100434.80
2022-09-20T16:22:16.512Z,100439.60
2022-09-20T16:24:49.882Z,100439.60
2022-09-20T16:27:22.788Z,100448.60
2022-09-20T16:29:55.778Z,100450.40
2022-09-20T16:32:29.550Z,100458.40
2022-09-20T16:35:07.730Z,100467.00
2022-09-20T16:37:41.504Z,100475.60
2022-09-20T16:40:15.909Z,100478.60
2022-09-20T16:42:52.361Z,100483.60
2022-09-20T16:45:28.381Z,100489.80
2022-09-20T16:48:08.449Z,100491.60
2022-09-20T16:50:42.403Z,100498.20
2022-09-20T16:53:16.041Z,100508.80
2022-09-20T16:55:49.888Z,100514.20
2022-09-20T16:58:27.774Z,100517.80
2022-09-20T17:01:09.164Z,100516.00
2022-09-20T17:03:42.089Z,100515.60
2022-09-20T17:06:16.716Z,100524.00
2022-09-20T17:08:58.134Z,100523.00
2022-09-20T17:11:37.788Z,100532.40
2022-09-20T17:14:11.953Z,100539.20
2022-09-20T17:16:47.733Z,100539.00
2022-09-20T17:19:22.492Z,100544.00
2022-09-20T17:21:56.233Z,100544.00
2022-09-20T17:24:31.342Z,100546.60
2022-09-20T17:27:05.362Z,100545.80
2022-09-20T17:29:39.093Z,100547.60
2022-09-20T17:32:12.552Z,100547.60
2022-09-20T17:34:45.577Z,100549.20
2022-09-20T17:37:18.567Z,100545.60
2022-09-20T17:39:51.476Z,100549.60
2022-09-20T17:42:24.545Z,100553.40
2022-09-20T17:44:57.237Z,100553.60
2022-09-20T17:47:29.938Z,100556.00
2022-09-20T17:50:02.686Z,100557.40
2022-09-20T17:52:35.464Z,100564.40
2022-09-20T17:55:11.247Z,100566.00
2022-09-20T17:57:44.199Z,100568.80
2022-09-20T18:00:18.921Z,100572.40
2022-09-20T18:02:51.763Z,100571.20
2022-09-20T18:05:24.605Z,100575.00
2022-09-20T18:07:57.686Z,100580.00
2022-09-20T18:10:30.570Z,100581.00
2022-09-20T18:13:03.766Z,100592.00
2022-09-20T18:15:37.802Z,100595.20
2022-09-20T18:18:11.307Z,100594.40
2022-09-20T18:20:44.161Z,100602.60
2022-09-20T18:23:17.361Z,100601.80
2022-09-20T18:26:08.057Z,100598.00
2022-09-20T18:28:42.730Z,100606.80
2022-09-20T18:31:18.967Z,100614.80
2022-09-20T18:33:55.679Z,100613.20
2022-09-20T18:36:30.238Z,100616.40
2022-09-20T18:39:03.593Z,100620.40
2022-09-20T18:41:39.668Z,100621.40
2022-09-20T18:44:15.321Z,100628.60
2022-09-20T18:46:53.302Z,100626.40
2022-09-20T18:49:26.644Z,100634.20
2022-09-20T18:52:00.257Z,100634.40
2022-09-20T18:54:33.780Z,100633.60
2022-09-20T18:57:10.441Z,100636.80
2022-09-20T18:59:53.806Z,100637.20
2022-09-20T19:02:53.058Z,100635.40
2022-09-20T19:05:34.239Z,100637.20
2022-09-20T19:08:23.100Z,100635.00
2022-09-20T19:11:03.701Z,100639.40
2022-09-20T19:13:41.460Z,100639.20
2022-09-20T19:16:30.942Z,100641.00
2022-09-20T19:19:35.209Z,100646.00
2022-09-20T19:22:21.661Z,100648.00
2022-09-20T19:25:26.186Z,100650.00
2022-09-20T19:27:59.790Z,100649.60
2022-09-20T19:30:34.515Z,100656.60
2022-09-20T19:33:13.705Z,100652.80
2022-09-20T19:35:50.801Z,100655.60
2022-09-20T19:38:38.778Z,100658.80
2022-09-20T19:41:29.673Z,100665.40
2022-09-20T19:44:28.268Z,100661.00
2022-09-20T19:47:20.108Z,100672.00
2022-09-20T19:49:56.835Z,100670.60
2022-09-20T19:52:31.155Z,100674.80
2022-09-20T19:55:06.112Z,100682.00
2022-09-20T19:57:47.421Z,100682.80
2022-09-20T20:00:24.346Z,100680.20
2022-09-20T20:02:58.769Z,100684.20
2022-09-20T20:05:33.418Z,100686.20
2022-09-20T20:08:18.896Z,100688.80
2022-09-20T20:11:04.529Z,100689.20
2022-09-20T20:14:04.295Z,100687.40
2022-09-20T20:16:52.137Z,100690.00
2022-09-20T20:19:48.870Z,100695.20
2022-09-20T20:22:39.283Z,100695.60
2022-09-20T20:25:27.234Z,100696.40
2022-09-20T20:27:59.886Z,100700.60
2022-09-20T20:30:33.090Z,100704.20
2022-09-20T20:33:07.676Z,100706.20
2022-09-20T20:35:40.500Z,100706.40
2022-09-20T20:38:13.181Z,100710.40
2022-09-20T20:40:45.857Z,100712.60
2022-09-20T20:43:18.634Z,100713.40
2022-09-20T20:45:55.530Z,100710.40
2022-09-20T20:48:28.717Z,100708.40
2022-09-20T20:51:08.105Z,100713.00
2022-09-20T20:53:47.150Z,100717.20
2022-09-20T20:56:22.201Z,100717.00
2022-09-20T20:58:55.188Z,100721.60
2022-09-20T21:01:30.960Z,100714.20
2022-09-20T21:04:05.095Z,100717.60
2022-09-20T21:06:40.883Z,100721.00
2022-09-20T21:09:13.984Z,100719.80
2022-09-20T21:11:48.629Z,100721.00
2022-09-20T21:14:21.432Z,100718.60
2022-09-20T21:16:55.827Z,100718.80
2022-09-20T21:19:28.876Z,100718.20
2022-09-20T21:22:01.574Z,100719.20
2022-09-20T21:24:34.478Z,100726.00
2022-09-20T21:27:07.574Z,100725.20
2022-09-20T21:29:40.246Z,100722.60
2022-09-20T21:32:14.576Z,100727.80
2022-09-20T21:34:47.245Z,100733.20
2022-09-20T21:37:20.026Z,100734.00
2022-09-20T21:39:54.243Z,100732.60
2022-09-20T21:42:29.076Z,100742.00
2022-09-20T21:45:02.063Z,100737.20
2022-09-20T21:47:35.058Z,100743.20
2022-09-20T21:50:09.525Z,100739.80
2022-09-20T21:52:46.644Z,100742.60
2022-09-20T21:55:19.643Z,100742.20
2022-09-20T21:57:52.426Z,100745.00
2022-09-20T22:00:25.378Z,100744.80
2022-09-20T22:03:01.375Z,100744.60
2022-09-20T22:05:34.876Z,100748.40
2022-09-20T22:08:07.954Z,100740.40
2022-09-20T22:10:40.741Z,100742.00
2022-09-20T22:13:13.415Z,100739.80
2022-09-20T22:15:46.329Z,100745.40
2022-09-20T22:18:19.292Z,100742.00
2022-09-20T22:21:02.409Z,100743.00
2022-09-20T22:23:35.663Z,100749.20
2022-09-20T22:26:11.668Z,100747.00
2022-09-20T22:28:45.288Z,100750.20
2022-09-20T22:31:22.473Z,100748.20
2022-09-20T22:33:58.039Z,100743.00
2022-09-20T22:36:34.309Z,100746.20
2022-09-20T22:39:08.730Z,100748.00
2022-09-20T22:41:42.896Z,100745.60
2022-09-20T22:44:15.681Z,100746.20
2022-09-20T22:46:48.359Z,100750.00
2022-09-20T22:49:21.054Z,100748.60
2022-09-20T22:51:53.928Z,100751.00
2022-09-20T22:54:26.621Z,100753.40
2022-09-20T22:56:59.389Z,100756.40
2022-09-20T22:59:32.848Z,100750.80
2022-09-20T23:02:06.012Z,100753.80
2022-09-20T23:04:38.755Z,100750.40
2022-09-20T23:07:11.436Z,100752.40
2022-09-20T23:09:44.628Z,100749.80
2022-09-20T23:12:17.418Z,100751.40
2022-09-20T23:14:50.215Z,100750.00
2022-09-20T23:17:22.980Z,100744.60
2022-09-20T23:19:55.778Z,100748.40
2022-09-20T23:22:28.463Z,100749.20
2022-09-20T23:25:01.545Z,100755.80
2022-09-20T23:27:34.288Z,100751.80
2022-09-20T23:30:08.992Z,100750.00
2022-09-20T23:32:41.926Z,100757.80
2022-09-20T23:35:14.816Z,100758.60
2022-09-20T23:37:47.565Z,100764.60
2022-09-20T23:40:20.836Z,100760.60
2022-09-20T23:42:53.549Z,100755.80
2022-09-20T23:45:26.463Z,100763.00
2022-09-20T23:47:59.441Z,100759.40
2022-09-20T23:50:32.219Z,100760.40
2022-09-20T23:53:04.909Z,100765.00
2022-09-20T23:55:37.586Z,100763.00
2022-09-20T23:58:10.463Z,100762.00
